Time;durP1;ratioP1;P1;durP2;ratioP2;P2;SDS_P1;SDS_P2;PMS_P1;PMS_P2;Temp;Humidity;BMP_temperature;BMP_pressure;BME280_temperature;BME280_humidity;BME280_pressure;Samples;Min_cycle;Max_cycle;Signal;HPM_P1;HPM_P2
2024/01/24 00:00:07;;;;;;;22.08;3.47;;;;;;;;;;6086634;23;20101;-65
2024/01/24 00:02:54;;;;;;;24.17;3.53;;;;;;;;;;6087477;23;20126;-65
2024/01/24 00:05:54;;;;;;;26.42;3.92;;;;;;;;;;6088265;23;20022;-55
2024/01/24 00:08:41;;;;;;;17.35;3.60;;;;;;;;;;6087364;23;20029;-54
2024/01/24 00:11:35;;;;;;;21.52;4.13;;;;;;;;;;6087473;23;20037;-55
2024/01/24 00:14:23;;;;;;;10.97;2.60;;;;;;;;;;6087633;23;20355;-53
2024/01/24 00:17:17;;;;;;;9.48;2.33;;;;;;;;;;6087368;23;20022;-62
2024/01/24 00:19:44;;;;;;;10.82;2.17;;;;;;;;;;6085417;23;20093;-51
2024/01/24 00:22:18;;;;;;;9.13;2.15;;;;;;;;;;6085583;23;20030;-49
2024/01/24 00:24:45;;;;;;;7.90;2.60;;;;;;;;;;6085222;23;20033;-52
2024/01/24 00:27:13;;;;;;;13.65;2.10;;;;;;;;;;6086898;23;20026;-54
2024/01/24 00:29:47;;;;;;;12.38;2.30;;;;;;;;;;6086961;23;20054;-52
2024/01/24 00:32:15;;;;;;;7.25;1.38;;;;;;;;;;6085709;23;20018;-53
2024/01/24 00:34:42;;;;;;;3.42;1.05;;;;;;;;;;6086294;23;20483;-57
2024/01/24 00:37:16;;;;;;;5.13;1.30;;;;;;;;;;6086921;23;20025;-57
2024/01/24 00:39:46;;;;;;;10.75;1.67;;;;;;;;;;6085894;23;20720;-54
2024/01/24 00:42:20;;;;;;;5.20;1.00;;;;;;;;;;6087149;23;20022;-56
2024/01/24 00:44:50;;;;;;;3.75;1.00;;;;;;;;;;6087932;23;20333;-61
2024/01/24 00:47:18;;;;;;;4.45;1.20;;;;;;;;;;6086635;23;20214;-58
2024/01/24 00:50:12;;;;;;;8.35;1.35;;;;;;;;;;6086795;23;20022;-58
2024/01/24 00:53:01;;;;;;;2.25;0.98;;;;;;;;;;6087105;23;20023;-57
2024/01/24 00:55:56;;;;;;;3.83;1.25;;;;;;;;;;6084815;23;20022;-56
2024/01/24 00:58:42;;;;;;;1.60;0.63;;;;;;;;;;6085745;23;20038;-57
2024/01/24 01:01:36;;;;;;;3.03;0.80;;;;;;;;;;6084717;23;20423;-58
2024/01/24 01:04:32;;;;;;;1.58;0.90;;;;;;;;;;6085815;23;20034;-62
2024/01/24 01:07:25;;;;;;;1.65;0.60;;;;;;;;;;6084982;23;20033;-61
2024/01/24 01:10:12;;;;;;;1.35;0.50;;;;;;;;;;6086310;23;20033;-61
2024/01/24 01:13:06;;;;;;;0.98;0.65;;;;;;;;;;6085645;23;20026;-50
2024/01/24 01:15:53;;;;;;;0.95;0.47;;;;;;;;;;6084025;23;20027;-57
2024/01/24 01:18:47;;;;;;;0.88;0.40;;;;;;;;;;6084941;23;20029;-56
2024/01/24 01:21:35;;;;;;;0.38;0.30;;;;;;;;;;6085246;23;20026;-58
2024/01/24 01:24:29;;;;;;;1.98;0.43;;;;;;;;;;6085932;23;20030;-55
2024/01/24 01:27:17;;;;;;;1.20;0.52;;;;;;;;;;6087124;23;20023;-56
2024/01/24 01:30:10;;;;;;;1.95;0.50;;;;;;;;;;6086797;23;20022;-57
2024/01/24 01:33:04;;;;;;;2.55;0.40;;;;;;;;;;6086293;23;20023;-66
2024/01/24 01:35:59;;;;;;;0.52;0.35;;;;;;;;;;6085544;23;20034;-66
2024/01/24 01:38:50;;;;;;;0.20;0.20;;;;;;;;;;6087166;23;20547;-66
2024/01/24 01:41:48;;;;;;;0.47;0.47;;;;;;;;;;6086549;23;20019;-59
2024/01/24 01:44:37;;;;;;;0.30;0.30;;;;;;;;;;6082450;23;20026;-67
2024/01/24 01:47:30;;;;;;;1.30;0.35;;;;;;;;;;6085914;23;20484;-67
2024/01/24 01:50:18;;;;;;;0.30;0.30;;;;;;;;;;6085842;23;20022;-67
2024/01/24 01:53:15;;;;;;;0.20;0.20;;;;;;;;;;6086452;23;20026;-67
2024/01/24 01:56:02;;;;;;;0.30;0.30;;;;;;;;;;6085932;23;20030;-67
2024/01/24 01:58:57;;;;;;;0.80;0.40;;;;;;;;;;6085842;23;20025;-68
2024/01/24 02:01:45;;;;;;;0.43;0.15;;;;;;;;;;6083657;23;20022;-68
2024/01/24 02:04:46;;;;;;;0.68;0.20;;;;;;;;;;6083836;23;20026;-69
2024/01/24 02:07:33;;;;;;;0.20;0.20;;;;;;;;;;6084420;23;20077;-70
2024/01/24 02:10:27;;;;;;;0.20;0.20;;;;;;;;;;6083772;23;20101;-67
2024/01/24 02:13:14;;;;;;;0.30;0.30;;;;;;;;;;6084615;23;20026;-69
2024/01/24 02:16:10;;;;;;;0.20;0.20;;;;;;;;;;6085286;23;20026;-69
2024/01/24 02:18:55;;;;;;;0.20;0.20;;;;;;;;;;6083712;23;20022;-69
2024/01/24 02:21:49;;;;;;;0.30;0.30;;;;;;;;;;6084021;23;20081;-69
2024/01/24 02:24:36;;;;;;;0.30;0.30;;;;;;;;;;6085770;23;20030;-69
2024/01/24 02:27:30;;;;;;;0.55;0.52;;;;;;;;;;6081562;23;20089;-68
2024/01/24 02:30:17;;;;;;;0.90;0.40;;;;;;;;;;6085905;23;20029;-69
2024/01/24 02:33:12;;;;;;;0.30;0.30;;;;;;;;;;6086226;23;20034;-70
2024/01/24 02:35:59;;;;;;;1.45;0.50;;;;;;;;;;6085621;23;20019;-71
2024/01/24 02:38:52;;;;;;;0.40;0.38;;;;;;;;;;6086670;23;20030;-65
2024/01/24 02:41:40;;;;;;;4.03;0.45;;;;;;;;;;6084252;23;20052;-66
2024/01/24 02:44:37;;;;;;;8.93;1.85;;;;;;;;;;6085044;23;20113;-66
2024/01/24 02:47:24;;;;;;;0.65;0.20;;;;;;;;;;6087846;23;20030;-66
2024/01/24 02:50:18;;;;;;;0.20;0.20;;;;;;;;;;6088170;23;20022;-66
2024/01/24 02:53:06;;;;;;;0.45;0.45;;;;;;;;;;6088474;23;20022;-66
2024/01/24 02:56:06;;;;;;;2.45;0.20;;;;;;;;;;6088949;23;20360;-67
2024/01/24 02:58:53;;;;;;;0.30;0.30;;;;;;;;;;6087203;23;20337;-67
2024/01/24 03:01:47;;;;;;;0.30;0.30;;;;;;;;;;6087772;23;20033;-67
2024/01/24 03:04:41;;;;;;;0.30;0.30;;;;;;;;;;6088405;23;20030;-68
2024/01/24 03:07:36;;;;;;;0.50;0.50;;;;;;;;;;6088392;23;20025;-56
2024/01/24 03:10:25;;;;;;;0.43;0.43;;;;;;;;;;6088464;23;20078;-61
2024/01/24 03:13:18;;;;;;;0.75;0.30;;;;;;;;;;6087622;23;20034;-59
2024/01/24 03:16:05;;;;;;;0.40;0.40;;;;;;;;;;6088237;23;20026;-60
2024/01/24 03:18:58;;;;;;;0.38;0.35;;;;;;;;;;6087866;23;20030;-59
2024/01/24 03:21:47;;;;;;;0.55;0.52;;;;;;;;;;6088310;23;20018;-60
2024/01/24 03:24:40;;;;;;;17.35;1.42;;;;;;;;;;6089432;23;20081;-69
2024/01/24 03:27:28;;;;;;;0.30;0.30;;;;;;;;;;6088391;23;20026;-68
2024/01/24 03:30:21;;;;;;;2.05;0.40;;;;;;;;;;6088705;23;20022;-70
2024/01/24 03:33:08;;;;;;;0.63;0.47;;;;;;;;;;6087782;23;20523;-69
2024/01/24 03:36:02;;;;;;;0.82;0.47;;;;;;;;;;6089322;23;20026;-69
2024/01/24 03:38:56;;;;;;;0.40;0.40;;;;;;;;;;6089127;23;20022;-52
2024/01/24 03:41:50;;;;;;;4.50;0.82;;;;;;;;;;6088087;23;20030;-52
2024/01/24 03:44:44;;;;;;;2.33;0.60;;;;;;;;;;6087334;23;20027;-54
2024/01/24 03:47:31;;;;;;;1.48;0.52;;;;;;;;;;6087602;23;20026;-51
2024/01/24 03:50:25;;;;;;;0.70;0.60;;;;;;;;;;6086994;23;20026;-50
2024/01/24 03:53:12;;;;;;;0.50;0.50;;;;;;;;;;6089857;23;20030;-68
2024/01/24 03:56:06;;;;;;;1.80;0.50;;;;;;;;;;6087056;23;20082;-68
2024/01/24 03:59:00;;;;;;;1.23;0.60;;;;;;;;;;6086502;23;20030;-68
2024/01/24 04:01:54;;;;;;;0.55;0.40;;;;;;;;;;6086034;23;20030;-67
2024/01/24 04:04:48;;;;;;;0.82;0.50;;;;;;;;;;6085576;23;20026;-59
2024/01/24 04:07:42;;;;;;;0.90;0.55;;;;;;;;;;6084465;23;20085;-63
2024/01/24 04:10:30;;;;;;;4.18;0.80;;;;;;;;;;6086740;23;20106;-64
2024/01/24 04:13:24;;;;;;;2.67;0.80;;;;;;;;;;6086980;23;20483;-63
2024/01/24 04:16:11;;;;;;;1.60;1.08;;;;;;;;;;6086031;23;20022;-63
2024/01/24 04:19:05;;;;;;;2.22;1.02;;;;;;;;;;6085703;23;20527;-63
2024/01/24 04:21:53;;;;;;;5.82;1.17;;;;;;;;;;6087624;23;20026;-67
2024/01/24 04:24:46;;;;;;;4.10;1.23;;;;;;;;;;6086489;23;20076;-67
2024/01/24 04:27:34;;;;;;;3.53;1.25;;;;;;;;;;6087834;23;20025;-66
2024/01/24 04:30:27;;;;;;;6.75;1.67;;;;;;;;;;6086551;23;20082;-66
2024/01/24 04:33:14;;;;;;;7.13;1.90;;;;;;;;;;6086360;23;20026;-67
2024/01/24 04:36:09;;;;;;;15.88;2.33;;;;;;;;;;6087637;23;20026;-63
2024/01/24 04:38:56;;;;;;;22.58;2.72;;;;;;;;;;6086383;23;20037;-63
2024/01/24 04:41:50;;;;;;;71.72;6.57;;;;;;;;;;6086370;23;20101;-63
2024/01/24 04:44:43;;;;;;;25.55;4.68;;;;;;;;;;6085801;23;20508;-62
2024/01/24 04:47:38;;;;;;;53.90;5.65;;;;;;;;;;6086029;23;20026;-62
2024/01/24 04:50:24;;;;;;;41.30;5.10;;;;;;;;;;6086120;23;20037;-62
2024/01/24 04:53:17;;;;;;;68.40;6.25;;;;;;;;;;6087075;23;20074;-62
2024/01/24 04:56:04;;;;;;;41.70;5.95;;;;;;;;;;6083914;23;20392;-62
2024/01/24 04:58:58;;;;;;;51.75;6.10;;;;;;;;;;6085241;23;20019;-62
2024/01/24 05:01:47;;;;;;;68.28;6.63;;;;;;;;;;6086103;23;20535;-62
2024/01/24 05:04:54;;;;;;;72.50;8.93;;;;;;;;;;6083214;23;20309;-60
2024/01/24 05:07:48;;;;;;;91.22;10.70;;;;;;;;;;6086532;23;20086;-61
2024/01/24 05:10:42;;;;;;;83.55;9.32;;;;;;;;;;6086311;23;20038;-60
2024/01/24 05:13:29;;;;;;;84.25;8.90;;;;;;;;;;6086916;23;20018;-61
2024/01/24 05:16:23;;;;;;;111.80;10.25;;;;;;;;;;6086918;23;20026;-61
2024/01/24 05:19:10;;;;;;;105.60;9.40;;;;;;;;;;6087858;23;20536;-60
2024/01/24 05:22:04;;;;;;;90.70;10.20;;;;;;;;;;6085812;23;20026;-60
2024/01/24 05:24:52;;;;;;;78.90;9.43;;;;;;;;;;6086256;23;20026;-60
2024/01/24 05:27:46;;;;;;;90.22;9.93;;;;;;;;;;6084996;23;20052;-60
2024/01/24 05:30:33;;;;;;;86.10;8.00;;;;;;;;;;6086386;23;20078;-62
2024/01/24 05:33:26;;;;;;;73.65;7.47;;;;;;;;;;6087418;23;20516;-62
2024/01/24 05:36:14;;;;;;;56.23;6.87;;;;;;;;;;6085697;23;20400;-62
2024/01/24 05:39:08;;;;;;;49.35;6.25;;;;;;;;;;6085201;23;20242;-62
2024/01/24 05:41:56;;;;;;;53.97;5.65;;;;;;;;;;6084256;23;20030;-62
2024/01/24 05:44:49;;;;;;;52.22;7.45;;;;;;;;;;6086345;23;20029;-61
2024/01/24 05:47:37;;;;;;;54.13;6.80;;;;;;;;;;6085051;23;20086;-61
2024/01/24 05:50:30;;;;;;;63.63;7.28;;;;;;;;;;6082707;23;20468;-60
2024/01/24 05:53:17;;;;;;;108.57;10.25;;;;;;;;;;6084418;23;20022;-61
2024/01/24 05:56:11;;;;;;;59.97;7.47;;;;;;;;;;6083139;23;20022;-60
2024/01/24 05:58:59;;;;;;;82.63;8.98;;;;;;;;;;6080728;23;20097;-65
2024/01/24 06:01:52;;;;;;;102.20;10.15;;;;;;;;;;6084701;23;20030;-64
2024/01/24 06:04:46;;;;;;;90.03;9.07;;;;;;;;;;6084710;23;20527;-65
2024/01/24 06:07:49;;;;;;;85.30;9.95;;;;;;;;;;6085419;23;20026;-64
2024/01/24 06:10:34;;;;;;;73.15;8.10;;;;;;;;;;6085000;23;20030;-64
2024/01/24 06:13:27;;;;;;;79.85;9.40;;;;;;;;;;6086568;23;20400;-64
2024/01/24 06:16:14;;;;;;;102.97;12.38;;;;;;;;;;6087662;23;20069;-65
2024/01/24 06:19:08;;;;;;;103.90;10.65;;;;;;;;;;6087546;23;20023;-65
2024/01/24 06:21:56;;;;;;;88.93;10.38;;;;;;;;;;6087767;23;20030;-65
2024/01/24 06:24:49;;;;;;;105.43;11.65;;;;;;;;;;6086345;23;20033;-65
2024/01/24 06:27:37;;;;;;;93.25;10.77;;;;;;;;;;6087634;23;20022;-69
2024/01/24 06:30:30;;;;;;;93.75;10.25;;;;;;;;;;6086740;23;20029;-59
2024/01/24 06:33:24;;;;;;;92.75;10.10;;;;;;;;;;6088652;23;20112;-59
2024/01/24 06:36:12;;;;;;;106.32;11.63;;;;;;;;;;6086844;23;20034;-60
2024/01/24 06:39:09;;;;;;;104.05;12.70;;;;;;;;;;6086285;23;20468;-56
2024/01/24 06:41:56;;;;;;;104.55;12.13;;;;;;;;;;6085961;23;20026;-58
2024/01/24 06:44:49;;;;;;;90.47;9.57;;;;;;;;;;6087231;23;20026;-66
2024/01/24 06:47:44;;;;;;;120.15;13.02;;;;;;;;;;6085238;23;20053;-67
2024/01/24 06:50:38;;;;;;;102.47;10.05;;;;;;;;;;6086455;23;20026;-67
2024/01/24 06:53:32;;;;;;;96.10;10.40;;;;;;;;;;6086730;23;20129;-58
2024/01/24 06:56:21;;;;;;;107.63;11.02;;;;;;;;;;6085468;23;20030;-59
2024/01/24 06:59:14;;;;;;;103.60;11.70;;;;;;;;;;6086040;23;20472;-63
2024/01/24 07:02:03;;;;;;;102.97;11.50;;;;;;;;;;6086754;23;20034;-63
2024/01/24 07:05:03;;;;;;;102.13;13.13;;;;;;;;;;6085394;23;20423;-63
2024/01/24 07:07:49;;;;;;;118.00;11.07;;;;;;;;;;6085248;23;20026;-63
2024/01/24 07:10:44;;;;;;;92.78;10.93;;;;;;;;;;6085439;23;20030;-64
2024/01/24 07:13:30;;;;;;;105.55;11.57;;;;;;;;;;6087620;23;20030;-59
2024/01/24 07:16:24;;;;;;;69.22;8.40;;;;;;;;;;6086796;23;20034;-59
2024/01/24 07:19:12;;;;;;;67.70;7.90;;;;;;;;;;6085966;23;20034;-59
2024/01/24 07:22:05;;;;;;;80.35;9.05;;;;;;;;;;6086544;23;20113;-59
2024/01/24 07:25:00;;;;;;;84.03;9.90;;;;;;;;;;6086161;23;20437;-63
2024/01/24 07:27:53;;;;;;;92.60;10.15;;;;;;;;;;6087678;23;20027;-61
2024/01/24 07:30:40;;;;;;;89.78;10.93;;;;;;;;;;6085901;23;20025;-61
2024/01/24 07:33:34;;;;;;;107.45;11.07;;;;;;;;;;6089072;23;20038;-60
2024/01/24 07:36:22;;;;;;;98.57;11.32;;;;;;;;;;6086833;23;20026;-60
2024/01/24 07:39:15;;;;;;;109.22;11.60;;;;;;;;;;6087220;23;20026;-60
2024/01/24 07:42:03;;;;;;;121.95;12.82;;;;;;;;;;6088201;23;20030;-67
2024/01/24 07:44:56;;;;;;;120.05;14.10;;;;;;;;;;6067737;23;20023;-67
2024/01/24 07:47:44;;;;;;;149.93;14.20;;;;;;;;;;6087897;23;20022;-68
2024/01/24 07:50:37;;;;;;;141.30;15.70;;;;;;;;;;6088266;23;20026;-52
2024/01/24 07:53:25;;;;;;;121.22;15.18;;;;;;;;;;6088202;23;20030;-59
2024/01/24 07:56:18;;;;;;;102.78;11.60;;;;;;;;;;6088001;23;20018;-59
2024/01/24 07:59:06;;;;;;;141.45;13.75;;;;;;;;;;6087398;23;20035;-59
2024/01/24 08:01:59;;;;;;;144.50;15.48;;;;;;;;;;6086101;23;20405;-56
2024/01/24 08:04:53;;;;;;;120.25;14.25;;;;;;;;;;6088564;23;20083;-58
2024/01/24 08:07:47;;;;;;;154.82;14.55;;;;;;;;;;6088100;23;20050;-58
2024/01/24 08:10:35;;;;;;;133.27;15.13;;;;;;;;;;6088717;23;20057;-51
2024/01/24 08:13:29;;;;;;;121.18;14.50;;;;;;;;;;6088914;23;20029;-51
2024/01/24 08:16:18;;;;;;;120.45;14.27;;;;;;;;;;6088272;23;20360;-51
2024/01/24 08:19:09;;;;;;;122.70;14.55;;;;;;;;;;6088160;23;20022;-66
2024/01/24 08:21:57;;;;;;;100.65;13.02;;;;;;;;;;6088526;23;20027;-67
2024/01/24 08:24:51;;;;;;;148.60;15.57;;;;;;;;;;6088609;23;20026;-51
2024/01/24 08:27:39;;;;;;;106.75;11.50;;;;;;;;;;6088623;23;20023;-48
2024/01/24 08:30:33;;;;;;;119.32;15.93;;;;;;;;;;6086251;23;20535;-53
2024/01/24 08:33:26;;;;;;;92.85;12.65;;;;;;;;;;6087816;23;20026;-48
2024/01/24 08:36:18;;;;;;;118.30;14.00;;;;;;;;;;6087251;23;20057;-51
2024/01/24 08:39:12;;;;;;;118.43;14.23;;;;;;;;;;6087538;23;20027;-59
2024/01/24 08:42:00;;;;;;;119.35;13.63;;;;;;;;;;6087734;23;20033;-57
2024/01/24 08:44:55;;;;;;;138.98;15.43;;;;;;;;;;6088289;23;20058;-60
2024/01/24 08:47:43;;;;;;;112.88;13.70;;;;;;;;;;6086694;23;20058;-57
2024/01/24 08:50:36;;;;;;;118.45;13.80;;;;;;;;;;6086629;23;20026;-67
2024/01/24 08:53:24;;;;;;;116.78;14.80;;;;;;;;;;6086643;23;20026;-63
2024/01/24 08:56:18;;;;;;;122.03;16.40;;;;;;;;;;6088033;23;20022;-63
2024/01/24 08:59:06;;;;;;;122.75;15.20;;;;;;;;;;6086697;23;20471;-64
2024/01/24 09:01:59;;;;;;;102.32;13.07;;;;;;;;;;6086082;23;20105;-63
2024/01/24 09:04:52;;;;;;;136.90;16.83;;;;;;;;;;6087285;23;20026;-63
2024/01/24 09:07:52;;;;;;;114.90;14.82;;;;;;;;;;6087695;23;20087;-58
2024/01/24 09:10:39;;;;;;;120.07;17.15;;;;;;;;;;6087464;23;20073;-58
2024/01/24 09:13:33;;;;;;;121.63;14.48;;;;;;;;;;6087242;23;20421;-60
2024/01/24 09:16:21;;;;;;;108.70;14.77;;;;;;;;;;6087077;23;20023;-67
2024/01/24 09:19:15;;;;;;;112.65;16.35;;;;;;;;;;6087876;23;20125;-66
2024/01/24 09:22:02;;;;;;;114.50;14.13;;;;;;;;;;6087266;23;20038;-66
2024/01/24 09:24:57;;;;;;;130.32;15.15;;;;;;;;;;6089371;23;20023;-66
2024/01/24 09:27:44;;;;;;;120.90;17.65;;;;;;;;;;6087629;23;20026;-66
2024/01/24 09:30:39;;;;;;;108.63;12.77;;;;;;;;;;6086212;23;20033;-67
2024/01/24 09:33:25;;;;;;;119.30;12.57;;;;;;;;;;6087030;23;20030;-66
2024/01/24 09:36:19;;;;;;;141.65;15.82;;;;;;;;;;6087694;23;20024;-64
2024/01/24 09:39:08;;;;;;;99.63;13.02;;;;;;;;;;6086213;23;20042;-64
2024/01/24 09:42:02;;;;;;;120.18;13.13;;;;;;;;;;6086759;23;20105;-64
2024/01/24 09:44:50;;;;;;;115.22;14.18;;;;;;;;;;6086149;23;20081;-64
2024/01/24 09:47:44;;;;;;;115.28;13.52;;;;;;;;;;6086177;23;20029;-50
2024/01/24 09:50:31;;;;;;;131.75;14.63;;;;;;;;;;6086812;23;20372;-49
2024/01/24 09:53:27;;;;;;;98.78;13.90;;;;;;;;;;6086653;23;20022;-47
2024/01/24 09:56:15;;;;;;;118.38;14.52;;;;;;;;;;6086171;23;20089;-48
2024/01/24 09:59:09;;;;;;;99.80;13.93;;;;;;;;;;6068046;23;20022;-53
2024/01/24 10:01:56;;;;;;;128.40;16.27;;;;;;;;;;6086805;23;20274;-48
2024/01/24 10:05:05;;;;;;;123.38;16.67;;;;;;;;;;6087714;23;20022;-51
2024/01/24 10:07:59;;;;;;;120.30;14.57;;;;;;;;;;6087223;23;20023;-48
2024/01/24 10:10:53;;;;;;;130.30;16.98;;;;;;;;;;6086410;23;20465;-50
2024/01/24 10:13:41;;;;;;;146.75;16.77;;;;;;;;;;6088573;23;20034;-57
2024/01/24 10:16:35;;;;;;;135.55;16.95;;;;;;;;;;6088248;23;20361;-52
2024/01/24 10:19:28;;;;;;;131.88;16.63;;;;;;;;;;6087133;23;20468;-54
2024/01/24 10:22:22;;;;;;;123.30;15.60;;;;;;;;;;6087817;23;20094;-55
2024/01/24 10:25:17;;;;;;;137.80;18.05;;;;;;;;;;6088271;23;20022;-56
2024/01/24 10:28:14;;;;;;;114.60;15.15;;;;;;;;;;6088247;23;20027;-54
2024/01/24 10:31:07;;;;;;;156.45;17.27;;;;;;;;;;6087766;23;20468;-59
2024/01/24 10:33:58;;;;;;;148.75;18.23;;;;;;;;;;6087493;23;20059;-58
2024/01/24 10:36:52;;;;;;;112.70;12.27;;;;;;;;;;6085411;23;20487;-59
2024/01/24 10:39:40;;;;;;;133.80;16.75;;;;;;;;;;6086016;23;20383;-59
2024/01/24 10:42:37;;;;;;;131.30;15.48;;;;;;;;;;6086605;23;20097;-59
2024/01/24 10:45:25;;;;;;;148.98;16.55;;;;;;;;;;6084472;23;20429;-46
2024/01/24 10:48:18;;;;;;;137.57;16.52;;;;;;;;;;6086715;23;20044;-48
2024/01/24 10:51:06;;;;;;;149.02;16.85;;;;;;;;;;6085778;23;20030;-46
2024/01/24 10:54:00;;;;;;;120.93;14.98;;;;;;;;;;6086952;23;20062;-48
2024/01/24 10:56:50;;;;;;;123.65;13.57;;;;;;;;;;6085598;23;20492;-48
2024/01/24 10:59:43;;;;;;;125.90;14.52;;;;;;;;;;6084376;23;20540;-66
2024/01/24 11:02:30;;;;;;;116.93;17.00;;;;;;;;;;6085733;23;20026;-66
2024/01/24 11:05:43;;;;;;;139.18;18.40;;;;;;;;;;6086225;23;20022;-67
2024/01/24 11:08:55;;;;;;;128.30;13.98;;;;;;;;;;6087785;23;20881;-66
2024/01/24 11:11:49;;;;;;;148.43;17.98;;;;;;;;;;6088557;23;20034;-59
2024/01/24 11:14:45;;;;;;;127.45;16.85;;;;;;;;;;6087706;23;20085;-59
2024/01/24 11:17:33;;;;;;;135.75;17.60;;;;;;;;;;6087760;23;20025;-58
2024/01/24 11:20:26;;;;;;;129.65;15.75;;;;;;;;;;6087446;23;20106;-58
2024/01/24 11:23:45;;;;;;;124.30;15.98;;;;;;;;;;6089035;23;20490;-59
2024/01/24 11:26:39;;;;;;;124.60;15.68;;;;;;;;;;6087733;23;20030;-59
2024/01/24 11:29:42;;;;;;;111.50;14.02;;;;;;;;;;6086389;23;20097;-57
2024/01/24 11:32:55;;;;;;;100.40;14.20;;;;;;;;;;6088136;23;20023;-59
2024/01/24 11:35:45;;;;;;;121.28;15.32;;;;;;;;;;6086146;23;20179;-59
2024/01/24 11:38:45;;;;;;;119.90;16.08;;;;;;;;;;6088210;23;20347;-54
2024/01/24 11:41:32;;;;;;;105.38;13.90;;;;;;;;;;6087251;23;20022;-59
2024/01/24 11:44:26;;;;;;;116.28;13.23;;;;;;;;;;6089206;23;20082;-59
2024/01/24 11:47:14;;;;;;;84.07;12.10;;;;;;;;;;6088048;23;20027;-59
2024/01/24 11:50:08;;;;;;;102.25;12.38;;;;;;;;;;6088132;23;20484;-59
2024/01/24 11:52:59;;;;;;;89.25;12.15;;;;;;;;;;6088021;23;20086;-57
2024/01/24 11:55:54;;;;;;;105.70;12.90;;;;;;;;;;6089010;23;20026;-58
2024/01/24 11:58:42;;;;;;;74.03;11.00;;;;;;;;;;6089167;23;20045;-63
2024/01/24 12:01:36;;;;;;;89.82;10.00;;;;;;;;;;6088734;23;20035;-63
2024/01/24 12:04:24;;;;;;;103.65;13.77;;;;;;;;;;6088984;23;20101;-62
2024/01/24 12:07:24;;;;;;;103.28;12.45;;;;;;;;;;6089266;23;20357;-64
2024/01/24 12:10:17;;;;;;;97.07;11.70;;;;;;;;;;6087589;23;20140;-64
2024/01/24 12:13:12;;;;;;;102.88;12.88;;;;;;;;;;6088247;23;20023;-63
2024/01/24 12:16:01;;;;;;;82.38;10.48;;;;;;;;;;6088234;23;20393;-64
2024/01/24 12:18:52;;;;;;;94.32;11.98;;;;;;;;;;6086789;23;20097;-63
2024/01/24 12:21:40;;;;;;;117.63;12.13;;;;;;;;;;6087456;23;20061;-64
2024/01/24 12:24:38;;;;;;;123.25;12.90;;;;;;;;;;6087573;23;20022;-65
2024/01/24 12:27:24;;;;;;;116.25;13.75;;;;;;;;;;6086949;23;20359;-66
2024/01/24 12:30:19;;;;;;;107.25;14.38;;;;;;;;;;6088277;23;20208;-66
2024/01/24 12:33:08;;;;;;;133.98;16.20;;;;;;;;;;6087244;23;20019;-66
2024/01/24 12:36:07;;;;;;;129.90;15.45;;;;;;;;;;6086843;23;20022;-59
2024/01/24 12:38:55;;;;;;;119.88;13.90;;;;;;;;;;6087278;23;20449;-56
2024/01/24 12:41:48;;;;;;;126.82;16.05;;;;;;;;;;6086142;23;20408;-56
2024/01/24 12:44:42;;;;;;;120.40;12.38;;;;;;;;;;6087362;23;20026;-55
2024/01/24 12:47:37;;;;;;;113.47;14.15;;;;;;;;;;6087513;23;20034;-56
2024/01/24 12:50:24;;;;;;;128.30;15.43;;;;;;;;;;6087538;23;20022;-54
2024/01/24 12:53:19;;;;;;;116.22;13.88;;;;;;;;;;6089471;23;20534;-61
2024/01/24 12:56:05;;;;;;;106.18;13.20;;;;;;;;;;6087395;23;20094;-59
2024/01/24 12:59:00;;;;;;;117.55;12.93;;;;;;;;;;6087828;23;20023;-58
2024/01/24 16:10:35;;;;;;;38.17;5.75;;;;;;;;;;6109137;23;20367;-68
2024/01/24 16:13:10;;;;;;;45.92;6.60;;;;;;;;;;6116666;23;20026;-65
2024/01/24 16:15:57;;;;;;;57.45;7.38;;;;;;;;;;6115733;23;20037;-67
2024/01/24 16:18:51;;;;;;;56.10;7.90;;;;;;;;;;6115955;23;20033;-67
2024/01/24 16:21:43;;;;;;;61.83;7.60;;;;;;;;;;6112887;23;20052;-68
2024/01/24 16:24:37;;;;;;;63.35;7.15;;;;;;;;;;6113371;23;20503;-66
2024/01/24 16:27:24;;;;;;;48.85;7.43;;;;;;;;;;6112463;23;20029;-66
2024/01/24 16:30:17;;;;;;;50.10;7.03;;;;;;;;;;6114220;23;20026;-68
2024/01/24 16:33:05;;;;;;;66.03;6.57;;;;;;;;;;6113129;23;20026;-65
2024/01/24 16:35:59;;;;;;;74.28;7.88;;;;;;;;;;6114599;23;20021;-68
2024/01/24 16:38:46;;;;;;;68.22;9.45;;;;;;;;;;6112606;23;20026;-68
2024/01/24 16:41:39;;;;;;;48.72;6.95;;;;;;;;;;6114196;23;20073;-68
2024/01/24 16:44:27;;;;;;;64.78;7.82;;;;;;;;;;6113189;23;20105;-68
2024/01/24 16:47:22;;;;;;;55.35;8.82;;;;;;;;;;6113770;23;20051;-68
2024/01/24 16:50:08;;;;;;;63.03;7.10;;;;;;;;;;6114328;23;20044;-60
2024/01/24 16:53:01;;;;;;;50.97;6.63;;;;;;;;;;6115142;23;20022;-60
2024/01/24 16:55:55;;;;;;;58.25;6.32;;;;;;;;;;6114818;23;20364;-61
2024/01/24 16:58:49;;;;;;;62.45;6.45;;;;;;;;;;6116182;23;20049;-60
2024/01/24 17:01:37;;;;;;;46.10;6.43;;;;;;;;;;6112672;23;20399;-60
2024/01/24 17:04:32;;;;;;;45.08;5.45;;;;;;;;;;6115181;23;20472;-60
2024/01/24 17:07:20;;;;;;;57.58;7.53;;;;;;;;;;6115448;23;20053;-61
2024/01/24 17:10:24;;;;;;;46.33;5.45;;;;;;;;;;6115576;23;20092;-67
2024/01/24 17:13:18;;;;;;;51.40;5.57;;;;;;;;;;6115505;23;20069;-68
2024/01/24 17:16:12;;;;;;;54.35;7.55;;;;;;;;;;6115118;23;20018;-67
2024/01/24 17:19:00;;;;;;;62.75;6.65;;;;;;;;;;6116073;23;20072;-64
2024/01/24 17:21:55;;;;;;;41.33;6.13;;;;;;;;;;6115565;23;20348;-65
2024/01/24 17:24:42;;;;;;;62.45;6.90;;;;;;;;;;6114574;23;20022;-65
2024/01/24 17:27:35;;;;;;;57.83;5.75;;;;;;;;;;6114839;23;20109;-65
2024/01/24 17:30:30;;;;;;;49.65;6.03;;;;;;;;;;6116151;23;20096;-65
2024/01/24 17:33:24;;;;;;;53.22;6.00;;;;;;;;;;6116760;23;20087;-65
2024/01/24 17:36:17;;;;;;;51.13;7.25;;;;;;;;;;6117775;23;20026;-68
2024/01/24 17:39:12;;;;;;;51.45;6.53;;;;;;;;;;6115068;23;20081;-68
2024/01/24 17:41:59;;;;;;;52.42;5.78;;;;;;;;;;6116062;23;20049;-68
2024/01/24 17:44:53;;;;;;;67.22;6.80;;;;;;;;;;6113677;23;20022;-69
2024/01/24 17:47:41;;;;;;;50.20;6.07;;;;;;;;;;6113754;23;20086;-63
2024/01/24 17:50:36;;;;;;;50.70;6.55;;;;;;;;;;6115561;23;20053;-68
2024/01/24 17:53:21;;;;;;;55.03;8.07;;;;;;;;;;6114741;23;20086;-68
2024/01/24 17:56:15;;;;;;;57.88;7.32;;;;;;;;;;6115447;23;20021;-68
2024/01/24 17:59:03;;;;;;;67.15;7.70;;;;;;;;;;6114376;23;20026;-68
2024/01/24 18:01:57;;;;;;;58.38;8.45;;;;;;;;;;6113222;23;20034;-68
2024/01/24 18:04:44;;;;;;;66.65;7.88;;;;;;;;;;6112840;23;20022;-52
2024/01/24 18:07:38;;;;;;;68.70;7.95;;;;;;;;;;6111554;23;20333;-68
2024/01/24 18:10:33;;;;;;;68.40;8.82;;;;;;;;;;6115061;23;20468;-68
2024/01/24 18:13:27;;;;;;;64.65;7.78;;;;;;;;;;6115573;23;20018;-68
2024/01/24 18:16:13;;;;;;;67.20;8.20;;;;;;;;;;6111475;23;20041;-67
2024/01/24 18:19:06;;;;;;;58.08;7.47;;;;;;;;;;6111342;23;20498;-68
2024/01/24 18:22:01;;;;;;;68.50;7.95;;;;;;;;;;6106228;23;20026;-68
2024/01/24 18:24:55;;;;;;;61.78;6.72;;;;;;;;;;6110601;23;20543;-64
2024/01/24 18:27:42;;;;;;;69.43;7.90;;;;;;;;;;6112344;23;20476;-61
2024/01/24 18:30:35;;;;;;;61.78;8.30;;;;;;;;;;6112502;23;20093;-62
2024/01/24 18:33:23;;;;;;;62.25;8.20;;;;;;;;;;6113025;23;20101;-62
2024/01/24 18:36:17;;;;;;;67.82;7.95;;;;;;;;;;6111590;23;20032;-61
2024/01/24 18:39:05;;;;;;;62.75;7.75;;;;;;;;;;6112644;23;20112;-61
2024/01/24 18:41:57;;;;;;;60.15;8.02;;;;;;;;;;6112619;23;20349;-68
2024/01/24 18:44:46;;;;;;;62.58;8.25;;;;;;;;;;6112350;23;20097;-65
2024/01/24 18:47:39;;;;;;;78.05;9.43;;;;;;;;;;6110671;23;20022;-65
2024/01/24 18:50:27;;;;;;;66.37;9.20;;;;;;;;;;6112749;23;20022;-65
2024/01/24 18:53:21;;;;;;;76.60;8.27;;;;;;;;;;6111638;23;20036;-65
2024/01/24 18:56:11;;;;;;;65.60;8.88;;;;;;;;;;6112059;23;20106;-65
2024/01/24 18:59:03;;;;;;;71.65;8.00;;;;;;;;;;6110732;23;20026;-65
2024/01/24 19:01:50;;;;;;;73.30;8.55;;;;;;;;;;6110313;23;20029;-62
2024/01/24 19:04:45;;;;;;;71.20;7.78;;;;;;;;;;6109894;23;20033;-54
2024/01/24 19:07:32;;;;;;;78.32;7.70;;;;;;;;;;6110660;23;20029;-58
2024/01/24 19:10:35;;;;;;;70.18;8.32;;;;;;;;;;6112281;23;20037;-58
2024/01/24 19:13:23;;;;;;;71.45;9.02;;;;;;;;;;6109933;23;20096;-56
2024/01/24 19:16:16;;;;;;;57.00;8.32;;;;;;;;;;6110286;23;20484;-56
2024/01/24 19:19:03;;;;;;;55.88;9.25;;;;;;;;;;6110655;23;20068;-56
2024/01/24 19:21:57;;;;;;;61.88;7.68;;;;;;;;;;6111473;23;20437;-68
2024/01/24 19:24:44;;;;;;;62.10;7.95;;;;;;;;;;6109900;23;20022;-68
2024/01/24 19:27:37;;;;;;;67.53;7.78;;;;;;;;;;6109144;23;20285;-68
2024/01/24 19:30:26;;;;;;;60.75;7.90;;;;;;;;;;6111720;23;20026;-68
2024/01/24 19:33:18;;;;;;;57.30;6.63;;;;;;;;;;6109009;23;20523;-68
2024/01/24 19:36:14;;;;;;;46.25;6.28;;;;;;;;;;6110382;23;20081;-69
2024/01/24 19:39:00;;;;;;;59.67;7.50;;;;;;;;;;6114072;23;20505;-50
2024/01/24 19:41:54;;;;;;;56.92;8.15;;;;;;;;;;6114393;23;20080;-65
2024/01/24 19:44:41;;;;;;;53.13;6.40;;;;;;;;;;6112010;23;20021;-65
2024/01/24 19:47:37;;;;;;;55.00;6.50;;;;;;;;;;6112417;23;20072;-65
2024/01/24 19:50:23;;;;;;;64.80;8.52;;;;;;;;;;6111866;23;20066;-65